DW5978 Whyalla SA AU current weather conditions

sailwx.info

Wind from 094 at 6 knots gusting 9

Air temperature 30.6° C
Dewpoint 11.0° C

Last reported at 2015-Mar-31 02:38 UTC.
Time now 2015-Mar-31 03:24 UTC

Location: S 33°01' E 137°32'.
View on Google Maps.

See reports from other nearby stations

  
Tides and Currents Weather Stations Pressure Air Temp Water Temp Dewpoint Dewpoint Depression Visibility Wind Speed Wind Dir Waves Ship Positions
date/time (UTC)wind fromknots sea level pressurealtimeterstation pressurevisibilityair tempwater tempwave heightnotes
2015-Mar-31 02:38 094 6 gusting 9 30.6
2015-Mar-31 02:23 238 0 gusting 4 30.0
2015-Mar-31 02:08 174 0 gusting 4 30.6
2015-Mar-31 01:53 151 0 gusting 3 30.0
2015-Mar-31 01:38 350 2 gusting 8 29.4
2015-Mar-31 01:23 025 5 gusting 8 29.4
2015-Mar-31 01:08 328 2 gusting 6 28.9
2015-Mar-31 00:53 326 3 gusting 6 27.8
2015-Mar-31 00:38 036 2 gusting 6 27.8
2015-Mar-31 00:23 022 3 gusting 6 26.7
2015-Mar-31 00:07 352 3 gusting 6 26.7
2015-Mar-30 23:52 033 2 gusting 6 25.6
2015-Mar-30 23:37 312 23.9
2015-Mar-30 23:22 311 22.2
2015-Mar-30 23:07 311 21.1
2015-Mar-30 22:52 312 20.0
2015-Mar-30 22:37 312 18.9
2015-Mar-30 22:22 311 17.8
2015-Mar-30 22:07 311 0 gusting 2 16.1
2015-Mar-30 21:51 311 0 gusting 1 14.4
2015-Mar-30 21:36
2015-Mar-30 21:21
2015-Mar-30 21:06
2015-Mar-30 20:51
2015-Mar-30 20:36
2015-Mar-30 20:21
2015-Mar-30 20:06
2015-Mar-30 19:51
2015-Mar-30 19:36
2015-Mar-30 19:21 311 0 gusting 1 13.9
2015-Mar-30 19:06 311 14.4
2015-Mar-30 18:51 311 14.4
2015-Mar-30 18:36 311 0 gusting 1 14.4
2015-Mar-30 18:21 311 0 gusting 1 14.4
2015-Mar-30 18:06 311 0 gusting 1 14.4
2015-Mar-30 17:51 311 14.4
2015-Mar-30 17:36 311 14.4
2015-Mar-30 17:21 310 14.4
2015-Mar-30 17:06 311 0 gusting 1 14.4
2015-Mar-30 16:51 311 0 gusting 1 14.4
2015-Mar-30 16:36 311 0 gusting 1 15.0
2015-Mar-30 16:21 311 0 gusting 2 13.9
2015-Mar-30 16:05 310 14.4
2015-Mar-30 15:50 311 15.0
2015-Mar-30 15:35 311 15.0
2015-Mar-30 15:20 311 0 gusting 0 15.0
2015-Mar-30 15:05 310 15.0
2015-Mar-30 14:50 311 0 gusting 1 15.0
2015-Mar-30 14:35 311 15.0
2015-Mar-30 14:20 311 0 gusting 1 15.0
2015-Mar-30 14:05 311 0 gusting 1 15.0
2015-Mar-30 13:50 311 15.6
2015-Mar-30 13:35 311 15.6
2015-Mar-30 13:20 311 16.1
2015-Mar-30 13:05 311 16.1
2015-Mar-30 12:50 311 16.7
2015-Mar-30 12:35 311 16.7
2015-Mar-30 12:20 311 1 gusting 2 17.2
2015-Mar-30 12:05 311 17.8
2015-Mar-30 11:50 311 0 gusting 2 18.3
2015-Mar-30 11:35 166 18.9
2015-Mar-30 11:20 167 19.4
2015-Mar-30 11:05 167 20.0
2015-Mar-30 10:50 166 0 gusting 2 20.6
2015-Mar-30 10:35 166 0 gusting 3 20.6
2015-Mar-30 10:20 215 2 gusting 4 21.1
2015-Mar-30 10:05 151 1 gusting 2 21.1
2015-Mar-30 09:50 203 0 gusting 3 21.7
2015-Mar-30 09:35 195 1 gusting 4 21.7
2015-Mar-30 09:20 190 0 gusting 2 22.2
2015-Mar-30 09:05 159 0 gusting 2 22.8
2015-Mar-30 08:50 072 0 gusting 1 23.9
2015-Mar-30 08:35 067 0 gusting 2 24.4
2015-Mar-30 08:20 148 1 gusting 4 25.0
2015-Mar-30 08:05 143 1 gusting 3 25.6
2015-Mar-30 07:50 113 3 gusting 5 25.6
2015-Mar-30 07:35 117 4 gusting 6 25.6
2015-Mar-30 07:20 105 4 gusting 7 26.1
2015-Mar-30 07:05 131 4 gusting 8 26.1
2015-Mar-30 06:50 117 4 gusting 7 26.1
2015-Mar-30 06:35 112 5 gusting 9 26.1
2015-Mar-30 06:20 077 4 gusting 7 26.1
2015-Mar-30 06:05 127 5 gusting 9 26.7
2015-Mar-30 05:50 109 3 gusting 8 26.7
2015-Mar-30 05:35 139 4 gusting 11 26.1
2015-Mar-30 05:20 123 4 gusting 8 26.7
2015-Mar-30 05:05 134 4 gusting 8 26.7
2015-Mar-30 04:50 156 3 gusting 7 26.7
2015-Mar-30 04:35 126 4 gusting 8 26.7
2015-Mar-30 04:20 179 5 gusting 8 26.7
2015-Mar-30 04:05 101 4 gusting 8 26.7
2015-Mar-30 03:50 112 3 gusting 6 26.1
2015-Mar-30 03:35 121 2 gusting 6 26.1
2015-Mar-30 03:20 094 2 gusting 7 26.1
2015-Mar-30 03:05 105 1 gusting 5 26.1
2015-Mar-30 02:50 156 4 gusting 8 25.6
2015-Mar-30 02:35 167 3 gusting 9 25.6
2015-Mar-30 02:20 117 2 gusting 6 25.6
2015-Mar-30 02:04 165 1 gusting 6 25.0
2015-Mar-30 01:49 145 2 gusting 6 25.0
2015-Mar-30 01:34 105 2 gusting 6 25.0
2015-Mar-30 01:19 127 1 gusting 4 24.4
2015-Mar-30 01:04 105 0 gusting 5 23.9
2015-Mar-30 00:49 143 0 gusting 3 23.9
2015-Mar-30 00:34 143 1 gusting 5 23.3
2015-Mar-30 00:19 129 1 gusting 4 22.2
2015-Mar-30 00:04 180 1 gusting 5 21.7
2015-Mar-29 23:49 212 1 gusting 3 20.6
2015-Mar-29 23:34 170 1 gusting 5 18.9
2015-Mar-29 23:19 186 1 gusting 3 18.3
2015-Mar-29 23:04 176 1 gusting 3 17.2
2015-Mar-29 22:49 249 0 gusting 2 16.1
2015-Mar-29 22:34 328 15.6
2015-Mar-29 22:19 328 15.0
2015-Mar-29 22:04 328 14.4
2015-Mar-29 21:49 328 13.9
2015-Mar-29 21:34 328 13.3
2015-Mar-29 21:19 327 12.8
2015-Mar-29 21:04 330 0 gusting 1 12.8
2015-Mar-29 20:49 328 13.3
2015-Mar-29 20:33 328 13.3
2015-Mar-29 20:18 328 13.3
2015-Mar-29 20:03 328 13.9
2015-Mar-29 19:48 330 0 gusting 1 13.9
2015-Mar-29 19:33 330 13.9
2015-Mar-29 19:18 330 13.9
2015-Mar-29 19:03 330 13.9
2015-Mar-29 18:48 330 14.4
2015-Mar-29 18:33 330 14.4
2015-Mar-29 18:18 330 14.4
2015-Mar-29 18:03 328 14.4
2015-Mar-29 17:48 328 14.4
2015-Mar-29 17:33 327 14.4
2015-Mar-29 17:18 328 14.4
2015-Mar-29 17:03 328 15.0
2015-Mar-29 16:48 332 0 gusting 2 14.4
2015-Mar-29 16:33 316 0 gusting 1 14.4
2015-Mar-29 16:18 316 0 gusting 1 14.4
2015-Mar-29 16:03 316 1 gusting 1 14.4
2015-Mar-29 15:48 316 0 gusting 1 15.0
2015-Mar-29 15:33 316 15.0
2015-Mar-29 15:18 316 15.0
2015-Mar-29 15:03 316 15.0
2015-Mar-29 14:48 316 15.6
2015-Mar-29 14:33 316 15.6
2015-Mar-29 14:18 315 15.6
2015-Mar-29 14:03 316 15.6
2015-Mar-29 13:52 314 16.1
2015-Mar-29 13:33 314 16.7
2015-Mar-29 13:20 314 16.7
2015-Mar-29 13:03 314 16.7
2015-Mar-29 12:48 315 0 gusting 1 16.7
2015-Mar-29 12:33 314 0 gusting 1 16.1
2015-Mar-29 12:18 067 0 gusting 0 16.7
2015-Mar-29 12:03 067 16.7
2015-Mar-29 11:48 067 16.7
2015-Mar-29 11:33 066 16.7
2015-Mar-29 11:17 067 17.2
2015-Mar-29 11:02 066 18.3
2015-Mar-29 10:47 070 19.4
2015-Mar-29 10:32 070 1 gusting 1 20.0
2015-Mar-29 10:17 068 20.6
2015-Mar-29 10:02 070 1 gusting 3 20.6
2015-Mar-29 09:47 105 1 gusting 3 20.6
2015-Mar-29 09:32 096 0 gusting 3 21.1
2015-Mar-29 09:17 082 0 gusting 1 21.1
2015-Mar-29 09:02 080 0 gusting 2 21.7
2015-Mar-29 08:47 114 2 gusting 4 22.2
2015-Mar-29 08:32 080 2 gusting 6 22.2
2015-Mar-29 08:17 084 4 gusting 10 22.8
2015-Mar-29 08:03 086 6 gusting 10 23.3
2015-Mar-29 07:47 058 6 gusting 10 22.8
2015-Mar-29 07:32 058 5 gusting 11 23.3
2015-Mar-29 07:17 056 6 gusting 13 23.3
2015-Mar-29 07:02 070 7 gusting 12 23.9
2015-Mar-29 06:47 098 6 gusting 10 24.4
2015-Mar-29 06:32 109 6 gusting 12 25.0
2015-Mar-29 06:17 072 6 gusting 13 25.0
2015-Mar-29 06:02 096 6 gusting 11 25.0
2015-Mar-29 05:47 091 7 gusting 13 25.0
2015-Mar-29 05:32 058 5 gusting 11 25.6
2015-Mar-29 05:17 101 4 gusting 10 25.6
2015-Mar-29 05:02 043 2 gusting 8 25.0
2015-Mar-29 04:47 098 4 gusting 6 24.4
2015-Mar-29 04:32 053 2 gusting 6 24.4
2015-Mar-29 04:17 022 3 gusting 6 24.4
2015-Mar-29 04:02 105 3 gusting 5 23.9
2015-Mar-29 03:47 114 3 gusting 5 23.9
2015-Mar-29 03:32 112 1 gusting 5 23.3
2015-Mar-29 03:17 138 2 gusting 4 23.3
2015-Mar-29 03:02 142 2 gusting 4 23.9